Cashion, Oklahoma
Current Conditions -  °F | °C
As of 3:53 PM on Friday 24 Oct 2014 (Local Time) from KGOK Reporting Station
Clear Clear  
Wind Chill: 83°   Ceiling: Unl
Heat Index: 84°   Visibility: 10mi
Dew Point: 62°   Wind: 13mph
Humidity: 49%   Direction: 210°SSW
Pressure: 30.01"   Gusts: NA
Location:  35.8°N, 97.68°W
Report Text: KGOK 242053Z AUTO 21011KT 10SM CLR 28/17 A3001 RMK AO2 SLP156 T02830167 56022
Loading
Personal Weather Stations






























Interactive Weather Map
Tropical Storm Tracking
New forecast layout! Learn more

10-Day Weather Forecast

Advertisements
Track Severe Weather on mobile